createdAt,value
2019-05-18T00:00:53.522Z,99.99
2019-05-18T00:01:53.512Z,99.99
2019-05-18T00:02:53.502Z,99.99
2019-05-18T00:03:53.535Z,99.99
2019-05-18T00:04:53.494Z,99.99
2019-05-18T00:05:53.485Z,99.99
2019-05-18T00:06:53.454Z,99.99
2019-05-18T00:07:53.456Z,99.99
2019-05-18T00:08:53.428Z,99.99
2019-05-18T00:09:53.447Z,99.99
2019-05-18T00:10:53.412Z,99.99
2019-05-18T00:11:53.401Z,99.99
2019-05-18T00:12:53.385Z,99.99
2019-05-18T00:13:53.376Z,99.99
2019-05-18T00:14:53.362Z,99.99
2019-05-18T00:15:53.375Z,99.99
2019-05-18T00:16:53.341Z,99.99
2019-05-18T00:17:53.341Z,99.99
2019-05-18T00:18:53.339Z,99.99
2019-05-18T00:19:53.320Z,99.99
2019-05-18T00:20:53.309Z,99.99
2019-05-18T00:21:53.285Z,99.99
2019-05-18T00:22:53.280Z,99.99
2019-05-18T00:23:53.263Z,99.99
2019-05-18T00:24:53.254Z,99.99
2019-05-18T00:25:53.661Z,99.99
2019-05-18T00:26:53.232Z,99.99
2019-05-18T00:27:53.219Z,99.99
2019-05-18T00:28:53.231Z,99.99
2019-05-18T00:29:53.208Z,99.99
2019-05-18T00:30:53.220Z,99.99
2019-05-18T00:31:53.174Z,99.99
2019-05-18T00:32:53.173Z,99.99
2019-05-18T00:33:53.168Z,99.99
2019-05-18T00:34:53.141Z,99.99
2019-05-18T00:35:53.149Z,99.99
2019-05-18T00:36:53.143Z,99.99
2019-05-18T00:37:53.105Z,99.99
2019-05-18T00:38:53.109Z,99.99
2019-05-18T00:39:53.100Z,99.99
2019-05-18T00:40:53.083Z,99.99
2019-05-18T00:41:53.083Z,99.99
2019-05-18T00:42:53.082Z,99.99
2019-05-18T00:43:53.045Z,99.99
2019-05-18T00:44:53.035Z,99.99
2019-05-18T00:45:53.026Z,99.99
2019-05-18T00:46:53.034Z,99.99
2019-05-18T00:47:53.005Z,99.99
2019-05-18T00:48:52.991Z,99.99
2019-05-18T00:49:52.989Z,99.99
2019-05-18T00:50:52.969Z,99.99
2019-05-18T00:51:52.979Z,99.99
2019-05-18T00:52:52.947Z,99.99
2019-05-18T00:53:52.932Z,99.99
2019-05-18T00:54:52.933Z,99.99
2019-05-18T00:55:52.977Z,99.99
2019-05-18T00:56:52.918Z,99.99
2019-05-18T00:57:52.891Z,99.99
2019-05-18T00:58:52.889Z,99.99
2019-05-18T00:59:52.872Z,99.99
2019-05-18T01:00:52.870Z,99.99
2019-05-18T01:01:52.864Z,99.99
2019-05-18T01:02:52.859Z,99.99
2019-05-18T01:03:52.839Z,99.99
2019-05-18T01:04:52.819Z,99.99
2019-05-18T01:05:52.810Z,99.99
2019-05-18T01:06:52.823Z,99.99
2019-05-18T01:07:52.792Z,99.99
2019-05-18T01:08:52.772Z,99.99
2019-05-18T01:09:52.756Z,99.99
2019-05-18T01:10:52.760Z,99.99
2019-05-18T01:11:52.734Z,99.99
2019-05-18T01:12:52.742Z,99.99
2019-05-18T01:13:52.712Z,99.99
2019-05-18T01:14:52.709Z,99.99
2019-05-18T01:15:52.696Z,99.99
2019-05-18T01:16:52.686Z,99.99
2019-05-18T01:17:57.467Z,99.99
2019-05-18T01:18:53.660Z,99.99
2019-05-18T01:19:52.652Z,99.99
2019-05-18T01:20:52.634Z,99.99
2019-05-18T01:21:52.723Z,99.99
2019-05-18T01:22:52.633Z,99.99
2019-05-18T01:23:52.611Z,99.99
2019-05-18T01:24:52.627Z,99.99
2019-05-18T01:25:52.600Z,99.99
2019-05-18T01:26:52.592Z,99.99
2019-05-18T01:27:52.664Z,99.99
2019-05-18T01:28:52.558Z,99.99
2019-05-18T01:29:52.545Z,99.99
2019-05-18T01:30:52.532Z,99.99
2019-05-18T01:31:52.520Z,99.99
2019-05-18T01:32:52.529Z,99.99
2019-05-18T01:33:52.510Z,99.99
2019-05-18T01:34:52.505Z,99.99
2019-05-18T01:35:52.475Z,99.99
2019-05-18T01:36:52.461Z,99.99
2019-05-18T01:37:52.491Z,99.99
2019-05-18T01:38:52.450Z,99.99
2019-05-18T01:39:52.441Z,99.99
2019-05-18T01:40:52.418Z,99.99
2019-05-18T01:41:52.409Z,99.99
2019-05-18T01:42:52.438Z,99.99
2019-05-18T01:43:52.387Z,99.99
2019-05-18T01:44:52.394Z,99.99
2019-05-18T01:45:52.373Z,99.99
2019-05-18T01:46:52.361Z,99.99
2019-05-18T01:47:52.359Z,99.99
2019-05-18T01:48:52.332Z,99.99
2019-05-18T01:49:52.332Z,99.99
2019-05-18T01:50:52.320Z,99.99
2019-05-18T01:51:52.299Z,99.99
2019-05-18T01:52:52.320Z,99.99
2019-05-18T01:53:52.288Z,99.99
2019-05-18T01:54:52.271Z,99.99
2019-05-18T01:55:52.260Z,99.99
2019-05-18T01:56:52.252Z,99.99
2019-05-18T01:57:52.259Z,99.99
2019-05-18T01:58:52.225Z,99.99
2019-05-18T01:59:52.212Z,99.99
2019-05-18T02:00:52.205Z,99.99
2019-05-18T02:01:52.202Z,99.99
2019-05-18T02:02:52.195Z,99.99
2019-05-18T02:03:52.187Z,99.99
2019-05-18T02:04:52.206Z,99.99
2019-05-18T02:05:52.163Z,99.99
2019-05-18T02:06:52.163Z,99.99
2019-05-18T02:07:52.144Z,99.99
2019-05-18T02:08:52.122Z,99.99
2019-05-18T02:09:52.103Z,99.99
2019-05-18T02:10:52.111Z,99.99
2019-05-18T02:11:52.086Z,99.99
2019-05-18T02:12:52.090Z,99.99
2019-05-18T02:13:52.064Z,99.99
2019-05-18T02:14:52.065Z,99.99
2019-05-18T02:15:52.035Z,99.99
2019-05-18T02:16:52.046Z,99.99
2019-05-18T02:17:52.042Z,99.99
2019-05-18T02:18:52.010Z,99.99
2019-05-18T02:19:52.017Z,99.99
2019-05-18T02:20:51.988Z,99.99
2019-05-18T02:21:51.979Z,99.99
2019-05-18T02:22:51.960Z,99.99
2019-05-18T02:23:51.975Z,99.99
2019-05-18T02:24:51.959Z,99.99
2019-05-18T02:25:51.930Z,99.99
2019-05-18T02:26:51.925Z,99.99
2019-05-18T02:27:51.942Z,99.99
2019-05-18T02:28:51.909Z,99.99
2019-05-18T02:29:51.880Z,99.99
2019-05-18T02:30:51.884Z,99.99
2019-05-18T02:31:51.886Z,99.99
2019-05-18T02:32:51.857Z,99.99
2019-05-18T02:33:51.882Z,99.99
2019-05-18T02:34:51.835Z,99.99
2019-05-18T02:35:51.831Z,99.99
2019-05-18T02:36:51.827Z,99.99
2019-05-18T02:37:51.797Z,99.99
2019-05-18T02:38:51.805Z,99.99
2019-05-18T02:39:51.796Z,99.99
2019-05-18T02:40:51.765Z,99.99
2019-05-18T02:41:51.757Z,99.99
2019-05-18T02:42:51.747Z,99.99
2019-05-18T02:43:51.757Z,99.99
2019-05-18T02:44:51.724Z,99.99
2019-05-18T02:45:51.720Z,99.99
2019-05-18T02:46:51.712Z,99.99
2019-05-18T02:47:51.698Z,99.99
2019-05-18T02:48:51.708Z,99.99
2019-05-18T02:49:51.679Z,99.99
2019-05-18T02:50:51.664Z,99.99
2019-05-18T02:51:51.657Z,99.99
2019-05-18T02:52:51.651Z,99.99
2019-05-18T02:53:51.654Z,99.99
2019-05-18T02:54:51.617Z,99.99
2019-05-18T02:55:51.608Z,99.99
2019-05-18T02:56:51.598Z,99.99
2019-05-18T02:57:51.594Z,99.99
2019-05-18T02:58:51.590Z,99.99
2019-05-18T02:59:51.571Z,99.99
2019-05-18T03:00:51.563Z,99.99
2019-05-18T03:01:51.547Z,99.99
2019-05-18T03:02:51.542Z,99.99
2019-05-18T03:03:51.526Z,99.99
2019-05-18T03:04:51.526Z,99.99
2019-05-18T03:05:51.509Z,99.99
2019-05-18T03:06:51.573Z,99.99
2019-05-18T03:07:51.472Z,99.99
2019-05-18T03:08:51.485Z,99.99
2019-05-18T03:09:51.455Z,99.99
2019-05-18T03:10:51.456Z,99.99
2019-05-18T03:11:51.439Z,99.99
2019-05-18T03:12:51.423Z,99.99
2019-05-18T03:13:51.433Z,99.99
2019-05-18T03:14:51.396Z,99.99
2019-05-18T03:15:51.391Z,99.99
2019-05-18T03:16:51.383Z,99.99
2019-05-18T03:17:51.374Z,99.99
2019-05-18T03:19:06.788Z,99.99
2019-05-18T03:19:52.357Z,99.99
2019-05-18T03:20:51.325Z,99.99
2019-05-18T03:21:51.326Z,99.99
2019-05-18T03:22:51.319Z,99.99
2019-05-18T03:23:51.310Z,99.99
2019-05-18T03:24:51.296Z,99.99
2019-05-18T03:25:51.276Z,99.99
2019-05-18T03:26:51.263Z,99.99
2019-05-18T03:27:51.261Z,99.99
2019-05-18T03:28:51.263Z,99.99
2019-05-18T03:29:51.235Z,99.99
2019-05-18T03:30:51.220Z,99.99
2019-05-18T03:31:51.223Z,99.99
2019-05-18T03:32:51.344Z,99.99
2019-05-18T03:33:51.220Z,99.99
2019-05-18T03:34:51.176Z,99.99
2019-05-18T03:35:51.193Z,99.99
2019-05-18T03:36:51.153Z,99.99
2019-05-18T03:37:51.151Z,99.99
2019-05-18T03:38:51.150Z,99.99
2019-05-18T03:39:51.118Z,99.99
2019-05-18T03:40:51.127Z,99.99
2019-05-18T03:41:51.096Z,99.99
2019-05-18T03:42:51.087Z,99.99
2019-05-18T03:43:51.097Z,99.99
2019-05-18T03:44:51.074Z,99.99
2019-05-18T03:45:51.067Z,99.99
2019-05-18T03:46:51.045Z,99.99
2019-05-18T03:47:51.036Z,99.99
2019-05-18T03:48:51.057Z,99.99
2019-05-18T03:49:51.018Z,99.99
2019-05-18T03:50:51.011Z,99.99
2019-05-18T03:51:50.999Z,99.99
2019-05-18T03:52:51.007Z,99.99
2019-05-18T03:53:51.008Z,99.99
2019-05-18T03:54:50.967Z,99.99
2019-05-18T03:55:50.964Z,99.99
2019-05-18T03:56:50.949Z,99.99
2019-05-18T03:57:50.932Z,99.99
2019-05-18T03:58:50.941Z,99.99
2019-05-18T03:59:50.913Z,99.99
2019-05-18T04:00:50.888Z,99.99
2019-05-18T04:01:50.887Z,99.99
2019-05-18T04:02:50.891Z,99.99
2019-05-18T04:03:50.875Z,99.99
2019-05-18T04:04:50.854Z,99.99
2019-05-18T04:05:50.841Z,99.99
2019-05-18T04:06:50.828Z,99.99
2019-05-18T04:07:50.823Z,99.99
2019-05-18T04:08:50.856Z,99.99
2019-05-18T04:09:50.807Z,99.99
2019-05-18T04:10:50.785Z,99.99
2019-05-18T04:11:50.779Z,99.99
2019-05-18T04:12:50.763Z,99.99
2019-05-18T04:13:50.771Z,99.99
2019-05-18T04:14:50.733Z,99.99
2019-05-18T04:15:50.746Z,99.99
2019-05-18T04:16:50.720Z,99.99
2019-05-18T04:17:50.706Z,99.99
2019-05-18T04:18:50.778Z,99.99
2019-05-18T04:19:50.682Z,99.99
2019-05-18T04:20:50.676Z,99.99
2019-05-18T04:21:50.668Z,99.99
2019-05-18T04:22:50.659Z,99.99
2019-05-18T04:23:50.682Z,99.99
2019-05-18T04:24:50.636Z,99.99
2019-05-18T04:25:50.618Z,99.99
2019-05-18T04:26:50.682Z,99.99
2019-05-18T04:27:50.606Z,99.99
2019-05-18T04:28:50.590Z,99.99
2019-05-18T04:29:50.597Z,99.99
2019-05-18T04:30:50.575Z,99.99
2019-05-18T04:31:50.564Z,99.99
2019-05-18T04:32:50.551Z,99.99
2019-05-18T04:33:50.536Z,99.99
2019-05-18T04:34:50.540Z,99.99
2019-05-18T04:35:50.540Z,99.99
2019-05-18T04:36:50.516Z,99.99
2019-05-18T04:37:50.508Z,99.99
2019-05-18T04:38:50.493Z,99.99
2019-05-18T04:39:50.490Z,99.99
2019-05-18T04:40:50.461Z,99.99
2019-05-18T04:41:50.459Z,99.99
2019-05-18T04:42:50.458Z,99.99
2019-05-18T04:43:50.435Z,99.99
2019-05-18T04:44:50.432Z,99.99
2019-05-18T04:45:50.433Z,99.99
2019-05-18T04:46:50.394Z,99.99
2019-05-18T04:47:50.396Z,99.99
2019-05-18T04:48:50.385Z,99.99
2019-05-18T04:50:04.451Z,99.99
2019-05-18T04:50:51.356Z,99.99
2019-05-18T04:51:50.343Z,99.99
2019-05-18T04:52:50.330Z,99.99
2019-05-18T04:53:50.329Z,99.99
2019-05-18T04:54:50.339Z,99.99
2019-05-18T04:55:50.298Z,99.99
2019-05-18T04:56:50.286Z,99.99
2019-05-18T04:57:50.285Z,99.99
2019-05-18T04:58:50.267Z,99.99
2019-05-18T04:59:50.275Z,99.99
2019-05-18T05:00:50.235Z,99.99
2019-05-18T05:01:50.240Z,99.99
2019-05-18T05:02:50.271Z,99.99
2019-05-18T05:03:50.205Z,99.99
2019-05-18T05:04:53.937Z,99.99
2019-05-18T05:05:51.191Z,99.99
2019-05-18T05:06:50.177Z,99.99
2019-05-18T05:07:50.173Z,99.99
2019-05-18T05:08:50.200Z,99.99
2019-05-18T05:09:50.167Z,99.99
2019-05-18T05:10:50.136Z,99.99
2019-05-18T05:11:50.135Z,99.99
2019-05-18T05:12:50.110Z,99.99
2019-05-18T05:13:50.096Z,99.99
2019-05-18T05:14:50.099Z,99.99
2019-05-18T05:15:50.082Z,99.99
2019-05-18T05:16:50.078Z,99.99
2019-05-18T05:17:50.056Z,99.99
2019-05-18T05:18:50.053Z,99.99
2019-05-18T05:19:50.084Z,99.99
2019-05-18T05:20:50.022Z,99.99
2019-05-18T05:21:50.008Z,99.99
2019-05-18T05:22:50.004Z,99.99
2019-05-18T05:23:49.998Z,99.99
2019-05-18T05:24:50.016Z,99.99
2019-05-18T05:25:49.971Z,99.99
2019-05-18T05:26:49.967Z,99.99
2019-05-18T05:27:49.967Z,99.99
2019-05-18T05:28:49.932Z,99.99
2019-05-18T05:29:49.932Z,99.99
2019-05-18T05:30:49.914Z,99.99
2019-05-18T05:31:49.909Z,99.99
2019-05-18T05:32:49.890Z,99.99
2019-05-18T05:33:49.882Z,99.88
2019-05-18T05:34:49.885Z,98.62
2019-05-18T05:35:49.866Z,98.27
2019-05-18T05:36:49.846Z,94.80
2019-05-18T05:37:49.834Z,95.26
2019-05-18T05:38:49.826Z,92.63
2019-05-18T05:39:49.830Z,94.60
2019-05-18T05:40:49.803Z,93.05
2019-05-18T05:41:49.792Z,94.82
2019-05-18T05:42:49.782Z,91.55
2019-05-18T05:43:49.786Z,90.41
2019-05-18T05:44:49.765Z,89.40
2019-05-18T05:45:49.751Z,88.35
2019-05-18T05:46:49.743Z,87.81
2019-05-18T05:47:49.724Z,87.10
2019-05-18T05:48:49.713Z,87.96
2019-05-18T05:49:49.717Z,87.42
2019-05-18T05:50:49.694Z,86.18
2019-05-18T05:51:49.699Z,85.94
2019-05-18T05:52:49.669Z,84.63
2019-05-18T05:53:49.662Z,84.79
2019-05-18T05:54:49.667Z,81.38
2019-05-18T05:55:49.643Z,81.74
2019-05-18T05:56:49.633Z,83.81
2019-05-18T05:57:49.619Z,81.91
2019-05-18T05:58:49.611Z,80.17
2019-05-18T05:59:49.611Z,79.03
2019-05-18T06:00:49.591Z,78.13
2019-05-18T06:01:49.574Z,76.33
2019-05-18T06:02:49.575Z,77.33
2019-05-18T06:03:49.553Z,76.23
2019-05-18T06:04:49.559Z,74.89
2019-05-18T06:05:49.591Z,75.39
2019-05-18T06:06:49.521Z,73.56
2019-05-18T06:07:49.509Z,73.56
2019-05-18T06:08:49.514Z,73.96
2019-05-18T06:09:49.503Z,75.32
2019-05-18T06:10:49.477Z,71.83
2019-05-18T06:11:49.483Z,72.69
2019-05-18T06:12:49.453Z,72.59
2019-05-18T06:13:49.443Z,72.55
2019-05-18T06:14:49.451Z,71.22
2019-05-18T06:15:49.431Z,70.53
2019-05-18T06:16:49.419Z,69.69
2019-05-18T06:17:49.399Z,69.09
2019-05-18T06:18:49.457Z,68.86
2019-05-18T06:19:49.389Z,70.65
2019-05-18T06:20:51.886Z,68.43
2019-05-18T06:21:49.358Z,68.33
2019-05-18T06:22:49.347Z,67.43
2019-05-18T06:23:49.338Z,65.54
2019-05-18T06:24:49.388Z,68.40
2019-05-18T06:25:49.316Z,67.80
2019-05-18T06:26:49.305Z,66.97
2019-05-18T06:27:49.292Z,66.05
2019-05-18T06:28:49.295Z,62.46
2019-05-18T06:29:49.271Z,62.93
2019-05-18T06:30:49.273Z,65.81
2019-05-18T06:31:49.261Z,64.98
2019-05-18T06:32:49.240Z,63.30
2019-05-18T06:33:49.228Z,62.53
2019-05-18T06:34:49.215Z,61.41
2019-05-18T06:35:49.218Z,64.09
2019-05-18T06:36:49.196Z,59.62
2019-05-18T06:37:49.183Z,61.08
2019-05-18T06:38:49.172Z,60.39
2019-05-18T06:39:49.164Z,61.48
2019-05-18T06:40:49.168Z,57.87
2019-05-18T06:41:49.142Z,58.77
2019-05-18T06:42:49.134Z,57.28
2019-05-18T06:43:49.122Z,59.07
2019-05-18T06:44:49.114Z,60.75
2019-05-18T06:45:49.118Z,62.51
2019-05-18T06:46:49.090Z,61.12
2019-05-18T06:47:49.096Z,58.51
2019-05-18T06:48:49.070Z,55.54
2019-05-18T06:49:49.062Z,57.92
2019-05-18T06:50:49.074Z,60.27
2019-05-18T06:51:49.042Z,58.48
2019-05-18T06:52:49.029Z,57.50
2019-05-18T06:53:49.018Z,57.79
2019-05-18T06:54:49.010Z,55.58
2019-05-18T06:55:49.011Z,57.67
2019-05-18T06:56:48.986Z,57.24
2019-05-18T06:57:48.977Z,54.86
2019-05-18T06:58:48.970Z,55.53
2019-05-18T06:59:48.956Z,55.63
2019-05-18T07:00:48.966Z,53.65
2019-05-18T07:01:48.934Z,52.07
2019-05-18T07:02:48.923Z,54.32
2019-05-18T07:03:48.922Z,53.60
2019-05-18T07:04:48.902Z,55.28
2019-05-18T07:05:48.888Z,54.79
2019-05-18T07:06:48.897Z,54.66
2019-05-18T07:07:48.870Z,53.97
2019-05-18T07:08:48.862Z,53.28
2019-05-18T07:09:48.858Z,51.97
2019-05-18T07:10:48.840Z,56.21
2019-05-18T07:11:48.851Z,52.95
2019-05-18T07:12:48.822Z,53.94
2019-05-18T07:13:48.809Z,52.36
2019-05-18T07:14:48.797Z,50.19
2019-05-18T07:15:48.790Z,49.96
2019-05-18T07:16:48.790Z,49.65
2019-05-18T07:17:48.766Z,51.13
2019-05-18T07:18:48.757Z,51.30
2019-05-18T07:19:48.742Z,49.03
2019-05-18T07:20:48.736Z,51.40
2019-05-18T07:21:48.737Z,50.49
2019-05-18T07:22:48.711Z,51.28
2019-05-18T07:23:48.701Z,47.43
2019-05-18T07:24:48.691Z,47.72
2019-05-18T07:25:48.684Z,47.90
2019-05-18T07:26:48.693Z,46.62
2019-05-18T07:27:48.663Z,47.58
2019-05-18T07:28:48.652Z,46.30
2019-05-18T07:29:48.640Z,45.61
2019-05-18T07:30:48.629Z,47.06
2019-05-18T07:31:48.636Z,49.13
2019-05-18T07:32:48.612Z,45.78
2019-05-18T07:33:48.601Z,46.67
2019-05-18T07:34:48.589Z,48.05
2019-05-18T07:35:48.583Z,47.73
2019-05-18T07:36:48.585Z,46.43
2019-05-18T07:37:48.577Z,47.39
2019-05-18T07:38:49.185Z,45.32
2019-05-18T07:39:48.544Z,45.23
2019-05-18T07:40:48.530Z,45.03
2019-05-18T07:41:48.535Z,45.32
2019-05-18T07:42:48.519Z,47.56
2019-05-18T07:43:48.501Z,47.07
2019-05-18T07:44:48.488Z,46.60
2019-05-18T07:45:48.479Z,46.68
2019-05-18T07:46:48.484Z,45.89
2019-05-18T07:47:48.458Z,46.68
2019-05-18T07:48:48.456Z,45.60
2019-05-18T07:49:48.435Z,45.79
2019-05-18T07:50:48.426Z,45.89
2019-05-18T07:51:48.432Z,47.17
2019-05-18T07:52:48.408Z,44.62
2019-05-18T07:53:48.393Z,45.50
2019-05-18T07:54:48.385Z,45.18
2019-05-18T07:55:48.374Z,44.81
2019-05-18T07:56:48.372Z,44.71
2019-05-18T07:57:48.353Z,45.03
2019-05-18T07:58:48.342Z,45.81
2019-05-18T07:59:48.332Z,44.64
2019-05-18T08:00:48.321Z,45.32
2019-05-18T08:01:48.333Z,45.42
2019-05-18T08:02:48.300Z,47.39
2019-05-18T08:03:48.291Z,45.13
2019-05-18T08:04:48.280Z,47.69
2019-05-18T08:05:48.268Z,47.27
2019-05-18T08:06:48.265Z,46.70
2019-05-18T08:07:48.260Z,44.64
2019-05-18T08:08:48.258Z,45.72
2019-05-18T08:09:48.228Z,45.62
2019-05-18T08:10:48.215Z,46.11
2019-05-18T08:11:48.209Z,45.94
2019-05-18T08:12:48.216Z,46.94
2019-05-18T08:13:48.184Z,46.06
2019-05-18T08:14:48.174Z,47.24
2019-05-18T08:15:48.296Z,47.46
2019-05-18T08:16:48.150Z,47.68
2019-05-18T08:17:48.167Z,48.29
2019-05-18T08:18:48.136Z,48.14
2019-05-18T08:19:48.124Z,48.16
2019-05-18T08:20:48.112Z,48.56
2019-05-18T08:21:53.353Z,49.20
2019-05-18T08:22:49.116Z,50.51
2019-05-18T08:23:48.094Z,50.34
2019-05-18T08:24:48.074Z,51.75
2019-05-18T08:25:48.064Z,51.28
2019-05-18T08:26:48.048Z,51.87
2019-05-18T08:27:48.038Z,54.07
2019-05-18T08:28:48.046Z,54.60
2019-05-18T08:29:48.016Z,54.00
2019-05-18T08:30:48.007Z,54.15
2019-05-18T08:31:47.995Z,56.43
2019-05-18T08:32:47.984Z,56.56
2019-05-18T08:33:47.990Z,54.80
2019-05-18T08:34:47.963Z,56.12
2019-05-18T08:35:47.971Z,57.21
2019-05-18T08:36:47.940Z,55.55
2019-05-18T08:37:47.930Z,58.13
2019-05-18T08:38:47.938Z,59.52
2019-05-18T08:39:47.919Z,57.53
2019-05-18T08:40:47.901Z,59.65
2019-05-18T08:41:48.802Z,57.69
2019-05-18T08:42:47.873Z,57.96
2019-05-18T08:43:47.883Z,56.10
2019-05-18T08:44:47.853Z,56.96
2019-05-18T08:45:47.845Z,58.16
2019-05-18T08:46:47.844Z,57.76
2019-05-18T08:47:47.828Z,56.67
2019-05-18T08:48:47.826Z,55.67
2019-05-18T08:49:47.797Z,56.77
2019-05-18T08:50:47.806Z,56.96
2019-05-18T08:51:47.781Z,55.87
2019-05-18T08:52:47.771Z,56.37
2019-05-18T08:53:47.776Z,55.77
2019-05-18T08:54:47.747Z,57.06
2019-05-18T08:55:47.736Z,56.67
2019-05-18T08:56:47.723Z,59.95
2019-05-18T08:57:47.711Z,59.98
2019-05-18T08:58:47.725Z,60.57
2019-05-18T08:59:47.691Z,60.77
2019-05-18T09:00:47.679Z,61.10
2019-05-18T09:01:47.718Z,60.90
2019-05-18T09:02:47.657Z,60.40
2019-05-18T09:03:47.650Z,58.64
2019-05-18T09:04:47.645Z,61.53
2019-05-18T09:05:47.625Z,63.75
2019-05-18T09:06:47.610Z,62.75
2019-05-18T09:07:47.607Z,62.95
2019-05-18T09:08:47.610Z,61.46
2019-05-18T09:09:47.608Z,60.96
2019-05-18T09:10:47.565Z,60.49
2019-05-18T09:11:47.569Z,61.29
2019-05-18T09:12:47.546Z,60.69
2019-05-18T09:13:47.540Z,61.99
2019-05-18T09:14:47.556Z,64.48
2019-05-18T09:15:47.514Z,61.99
2019-05-18T09:16:47.506Z,60.89
2019-05-18T09:17:47.499Z,63.78
2019-05-18T09:18:47.491Z,59.59
2019-05-18T09:19:47.487Z,61.19
2019-05-18T09:20:47.460Z,61.49
2019-05-18T09:21:47.450Z,61.91
2019-05-18T09:22:47.446Z,60.72
2019-05-18T09:23:47.437Z,64.71
2019-05-18T09:24:47.435Z,61.58
2019-05-18T09:25:47.409Z,62.48
2019-05-18T09:26:47.411Z,61.41
2019-05-18T09:27:47.383Z,61.82
2019-05-18T09:28:47.373Z,60.62
2019-05-18T09:29:47.384Z,61.02
2019-05-18T09:30:47.355Z,62.31
2019-05-18T09:31:47.342Z,61.22
2019-05-18T09:32:47.338Z,61.32
2019-05-18T09:33:47.319Z,61.61
2019-05-18T09:34:47.329Z,64.51
2019-05-18T09:35:47.318Z,61.82
2019-05-18T09:36:47.292Z,61.49
2019-05-18T09:37:47.280Z,62.18
2019-05-18T09:38:47.280Z,61.49
2019-05-18T09:39:47.266Z,61.29
2019-05-18T09:40:47.256Z,62.59
2019-05-18T09:41:47.243Z,61.09
2019-05-18T09:42:47.218Z,61.16
2019-05-18T09:43:47.211Z,60.89
2019-05-18T09:44:47.220Z,62.78
2019-05-18T09:45:47.191Z,60.59
2019-05-18T09:46:47.184Z,62.29
2019-05-18T09:47:47.168Z,60.19
2019-05-18T09:48:47.156Z,61.91
2019-05-18T09:49:47.159Z,59.99
2019-05-18T09:50:47.135Z,60.09
2019-05-18T09:51:47.126Z,61.22
2019-05-18T09:52:47.118Z,64.97
2019-05-18T09:53:51.553Z,60.79
2019-05-18T09:54:47.122Z,61.29
2019-05-18T09:55:47.088Z,64.28
2019-05-18T09:56:47.068Z,64.97
2019-05-18T09:57:47.067Z,66.07
2019-05-18T09:58:47.048Z,62.29
2019-05-18T09:59:47.048Z,62.75
2019-05-18T10:00:47.044Z,61.49
2019-05-18T10:01:47.015Z,61.36
2019-05-18T10:02:47.005Z,60.56
2019-05-18T10:03:46.997Z,58.76
2019-05-18T10:04:46.983Z,61.72
2019-05-18T10:05:46.991Z,61.36
2019-05-18T10:06:46.962Z,62.13
2019-05-18T10:07:47.008Z,60.24
2019-05-18T10:08:46.942Z,59.70
2019-05-18T10:09:46.994Z,61.10
2019-05-18T10:10:46.949Z,56.42
2019-05-18T10:11:46.917Z,59.21
2019-05-18T10:12:46.903Z,60.50
2019-05-18T10:13:46.888Z,58.01
2019-05-18T10:14:46.877Z,57.12
2019-05-18T10:15:46.879Z,57.12
2019-05-18T10:16:46.861Z,57.59
2019-05-18T10:17:46.839Z,57.29
2019-05-18T10:18:46.835Z,56.00
2019-05-18T10:19:46.828Z,60.68
2019-05-18T10:20:46.829Z,56.47
2019-05-18T10:21:46.801Z,56.67
2019-05-18T10:22:58.990Z,59.05
2019-05-18T10:23:47.777Z,55.85
2019-05-18T10:24:46.779Z,54.95
2019-05-18T10:25:46.769Z,57.64
2019-05-18T10:26:46.743Z,56.02
2019-05-18T10:27:46.733Z,54.43
2019-05-18T10:28:46.721Z,55.12
2019-05-18T10:29:46.866Z,57.18
2019-05-18T10:30:46.713Z,56.78
2019-05-18T10:31:46.684Z,55.87
2019-05-18T10:32:46.678Z,55.81
2019-05-18T10:33:46.718Z,54.20
2019-05-18T10:34:46.664Z,56.25
2019-05-18T10:35:46.660Z,53.13
2019-05-18T10:36:46.635Z,49.96
2019-05-18T10:37:46.623Z,50.93
2019-05-18T10:38:46.608Z,49.52
2019-05-18T10:39:46.606Z,50.38
2019-05-18T10:40:46.610Z,49.08
2019-05-18T10:41:46.579Z,49.67
2019-05-18T10:42:46.568Z,49.35
2019-05-18T10:43:46.951Z,47.45
2019-05-18T10:44:46.550Z,47.63
2019-05-18T10:45:46.557Z,47.50
2019-05-18T10:46:46.526Z,47.75
2019-05-18T10:47:46.517Z,46.97
2019-05-18T10:48:46.506Z,47.46
2019-05-18T10:49:46.495Z,46.65
2019-05-18T10:50:46.507Z,47.51
2019-05-18T10:51:46.477Z,46.92
2019-05-18T10:52:46.462Z,45.52
2019-05-18T10:53:46.452Z,45.23
2019-05-18T10:54:46.440Z,44.62
2019-05-18T10:55:46.460Z,44.30
2019-05-18T10:56:46.423Z,44.67
2019-05-18T10:57:46.414Z,43.74
2019-05-18T10:58:46.416Z,42.47
2019-05-18T10:59:46.386Z,42.98
2019-05-18T11:00:46.382Z,44.04
2019-05-18T11:01:46.392Z,42.91
2019-05-18T11:02:46.358Z,43.66
2019-05-18T11:03:46.348Z,40.82
2019-05-18T11:04:46.340Z,41.00
2019-05-18T11:05:46.332Z,40.48
2019-05-18T11:06:46.330Z,39.76
2019-05-18T11:07:46.310Z,39.96
2019-05-18T11:08:46.298Z,40.01
2019-05-18T11:09:46.293Z,40.76
2019-05-18T11:10:46.279Z,38.67
2019-05-18T11:11:46.281Z,38.64
2019-05-18T11:12:46.254Z,39.39
2019-05-18T11:13:46.251Z,39.20
2019-05-18T11:14:46.247Z,35.81
2019-05-18T11:15:46.225Z,35.31
2019-05-18T11:16:46.231Z,36.18
2019-05-18T11:17:46.208Z,37.64
2019-05-18T11:18:46.193Z,35.78
2019-05-18T11:19:46.181Z,39.29
2019-05-18T11:20:46.177Z,36.15
2019-05-18T11:21:46.179Z,36.13
2019-05-18T11:22:46.160Z,34.46
2019-05-18T11:23:48.124Z,34.98
2019-05-18T11:24:46.134Z,36.93
2019-05-18T11:25:46.129Z,36.21
2019-05-18T11:26:46.127Z,36.48
2019-05-18T11:27:46.107Z,35.45
2019-05-18T11:28:46.097Z,34.95
2019-05-18T11:29:46.083Z,35.24
2019-05-18T11:30:46.071Z,37.43
2019-05-18T11:31:46.077Z,35.38
2019-05-18T11:32:46.053Z,35.93
2019-05-18T11:33:46.045Z,34.22
2019-05-18T11:34:46.035Z,35.72
2019-05-18T11:35:46.020Z,35.88
2019-05-18T11:36:46.027Z,34.25
2019-05-18T11:37:46.003Z,36.14
2019-05-18T11:38:45.995Z,35.78
2019-05-18T11:39:45.983Z,38.24
2019-05-18T11:40:45.973Z,37.99
2019-05-18T11:41:45.979Z,38.10
2019-05-18T11:42:45.956Z,37.85
2019-05-18T11:43:45.941Z,39.29
2019-05-18T11:44:45.943Z,38.42
2019-05-18T11:45:45.920Z,37.67
2019-05-18T11:46:45.961Z,38.59
2019-05-18T11:47:45.900Z,40.58
2019-05-18T11:48:45.894Z,41.66
2019-05-18T11:49:45.881Z,40.94
2019-05-18T11:50:45.870Z,39.31
2019-05-18T11:51:45.861Z,37.81
2019-05-18T11:52:45.867Z,39.41
2019-05-18T11:53:57.491Z,38.48
2019-05-18T11:54:46.828Z,35.82
2019-05-18T11:55:45.825Z,34.43
2019-05-18T11:56:45.813Z,35.85
2019-05-18T11:57:45.830Z,35.52
2019-05-18T11:58:45.791Z,34.50
2019-05-18T11:59:45.780Z,32.97
2019-05-18T12:00:45.780Z,33.33
2019-05-18T12:01:45.766Z,34.31
2019-05-18T12:02:45.764Z,33.00
2019-05-18T12:03:45.742Z,31.91
2019-05-18T12:04:48.655Z,30.96
2019-05-18T12:05:45.722Z,31.75
2019-05-18T12:06:45.714Z,31.14
2019-05-18T12:07:45.717Z,30.63
2019-05-18T12:08:45.698Z,29.74
2019-05-18T12:09:45.684Z,30.35
2019-05-18T12:10:45.676Z,31.46
2019-05-18T12:11:45.670Z,31.56
2019-05-18T12:12:45.686Z,32.28
2019-05-18T12:13:45.644Z,31.40
2019-05-18T12:14:45.637Z,32.31
2019-05-18T12:15:45.624Z,31.47
2019-05-18T12:16:45.620Z,32.96
2019-05-18T12:17:45.602Z,34.81
2019-05-18T12:18:45.694Z,35.16
2019-05-18T12:19:45.586Z,36.05
2019-05-18T12:20:45.571Z,35.27
2019-05-18T12:21:45.566Z,35.35
2019-05-18T12:22:45.558Z,34.83
2019-05-18T12:23:45.555Z,35.66
2019-05-18T12:24:45.538Z,33.41
2019-05-18T12:25:45.525Z,33.23
2019-05-18T12:26:45.518Z,33.94
2019-05-18T12:27:45.542Z,32.92
2019-05-18T12:28:45.519Z,33.29
2019-05-18T12:29:45.488Z,32.32
2019-05-18T12:30:45.477Z,33.14
2019-05-18T12:31:45.466Z,34.63
2019-05-18T12:32:45.454Z,34.27
2019-05-18T12:33:45.463Z,35.57
2019-05-18T12:34:45.573Z,36.10
2019-05-18T12:35:45.424Z,36.10
2019-05-18T12:36:45.413Z,35.86
2019-05-18T12:37:45.412Z,36.39
2019-05-18T12:38:45.406Z,36.43
2019-05-18T12:39:45.389Z,36.26
2019-05-18T12:40:45.379Z,36.15
2019-05-18T12:41:45.387Z,38.04
2019-05-18T12:42:45.355Z,38.18
2019-05-18T12:43:45.375Z,37.92
2019-05-18T12:44:45.333Z,39.61
2019-05-18T12:45:45.331Z,39.54
2019-05-18T12:46:45.334Z,39.58
2019-05-18T12:47:45.310Z,40.70
2019-05-18T12:48:45.295Z,41.19
2019-05-18T12:49:45.303Z,42.71
2019-05-18T12:50:45.274Z,41.85
2019-05-18T12:51:45.258Z,42.54
2019-05-18T12:52:45.251Z,41.86